Time;durP1;ratioP1;P1;durP2;ratioP2;P2;SDS_P1;SDS_P2;PMS_P1;PMS_P2;Temp;Humidity;BMP_temperature;BMP_pressure;BME280_temperature;BME280_humidity;BME280_pressure;Samples;Min_cycle;Max_cycle;Signal;HPM_P1;HPM_P2
2022/08/24 00:00:14;;;;;;;0.50;0.30;;;21.40;99.90;;;;;;5012323;28;20467;-75
2022/08/24 00:02:41;;;;;;;0.50;0.40;;;21.40;99.90;;;;;;5012547;28;20522;-75
2022/08/24 00:05:08;;;;;;;0.50;0.30;;;21.40;99.90;;;;;;5011451;28;20463;-75
2022/08/24 00:07:36;;;;;;;0.50;0.30;;;21.40;99.90;;;;;;5011701;28;20431;-75
2022/08/24 00:10:06;;;;;;;0.50;0.30;;;21.40;99.90;;;;;;5012215;28;20435;-75
2022/08/24 00:12:33;;;;;;;0.50;0.30;;;21.40;99.90;;;;;;5012179;28;20434;-75
2022/08/24 00:15:02;;;;;;;0.50;0.30;;;21.30;99.90;;;;;;5010769;28;20905;-75
2022/08/24 00:17:29;;;;;;;0.50;0.30;;;21.30;99.90;;;;;;5011755;28;20473;-75
2022/08/24 00:19:56;;;;;;;0.50;0.30;;;21.30;99.90;;;;;;5011504;28;20435;-73
2022/08/24 00:22:23;;;;;;;0.50;0.30;;;21.30;99.90;;;;;;5011818;28;20449;-75
2022/08/24 00:24:49;;;;;;;0.50;0.30;;;21.30;99.90;;;;;;5011106;28;20467;-75
2022/08/24 00:27:16;;;;;;;0.50;0.30;;;21.30;99.90;;;;;;5013406;28;20442;-75
2022/08/24 00:29:43;;;;;;;0.50;0.30;;;21.30;99.90;;;;;;5011654;28;20533;-74
2022/08/24 00:32:11;;;;;;;0.50;0.30;;;21.30;99.90;;;;;;5011926;28;20445;-75
2022/08/24 00:34:38;;;;;;;0.50;0.30;;;21.30;99.90;;;;;;5011245;28;20982;-75
2022/08/24 00:37:05;;;;;;;0.50;0.30;;;21.20;99.90;;;;;;5011952;28;20439;-75
2022/08/24 00:39:32;;;;;;;0.50;0.30;;;21.10;99.90;;;;;;5011660;28;20449;-75
2022/08/24 00:41:59;;;;;;;0.50;0.30;;;21.10;99.90;;;;;;5011543;28;20526;-75
2022/08/24 00:44:26;;;;;;;0.87;0.87;;;21.10;99.90;;;;;;5011360;28;20465;-75
2022/08/24 00:46:58;;;;;;;0.50;0.30;;;21.10;99.90;;;;;;5011902;28;20442;-73
2022/08/24 00:49:31;;;;;;;0.50;0.30;;;21.10;99.90;;;;;;5011325;28;20438;-74
2022/08/24 00:52:05;;;;;;;0.50;0.30;;;21.10;99.90;;;;;;5011504;28;20423;-73
2022/08/24 00:54:36;;;;;;;0.50;0.30;;;21.00;99.90;;;;;;5011464;28;20473;-75
2022/08/24 00:57:09;;;;;;;0.50;0.30;;;21.00;99.90;;;;;;5011228;28;20427;-75
2022/08/24 00:59:41;;;;;;;0.50;0.30;;;20.90;99.90;;;;;;5011836;28;20931;-74
2022/08/24 01:02:21;;;;;;;0.50;0.30;;;20.90;99.90;;;;;;5015736;28;20447;-74
2022/08/24 01:04:53;;;;;;;0.50;0.30;;;20.90;99.90;;;;;;5014910;28;20541;-73
2022/08/24 01:07:21;;;;;;;0.50;0.30;;;20.90;99.90;;;;;;5015480;28;20963;-77
2022/08/24 01:09:49;;;;;;;0.50;0.30;;;20.90;99.90;;;;;;5015039;28;20439;-77
2022/08/24 01:12:16;;;;;;;0.50;0.40;;;20.80;99.90;;;;;;5015328;28;20782;-75
2022/08/24 01:14:43;;;;;;;0.50;0.30;;;20.80;99.90;;;;;;5014685;28;20465;-74
2022/08/24 01:20:00;;;;;;;0.50;0.40;;;20.70;99.90;;;;;;5014938;28;20476;-73
2022/08/24 01:22:40;;;;;;;0.50;0.30;;;20.60;99.90;;;;;;5015239;28;20427;-75
2022/08/24 01:25:09;;;;;;;0.50;0.40;;;20.60;99.90;;;;;;5014551;28;20516;-75
2022/08/24 01:27:36;;;;;;;0.50;0.30;;;20.60;99.90;;;;;;5015247;28;20461;-75
2022/08/24 01:30:09;;;;;;;0.50;0.30;;;20.60;99.90;;;;;;5014955;28;20451;-75
2022/08/24 01:32:36;;;;;;;0.50;0.30;;;20.60;99.90;;;;;;5014565;28;21654;-75
2022/08/24 01:35:03;;;;;;;0.50;0.30;;;20.60;99.90;;;;;;5014521;28;20456;-75
2022/08/24 01:37:31;;;;;;;0.50;0.30;;;20.60;99.90;;;;;;5014918;28;20430;-75
2022/08/24 01:40:03;;;;;;;0.50;0.30;;;20.50;99.90;;;;;;5014613;28;20457;-77
2022/08/24 01:42:33;;;;;;;0.50;0.30;;;20.50;99.90;;;;;;5014539;28;20485;-77
2022/08/24 01:45:01;;;;;;;0.50;0.30;;;20.50;99.90;;;;;;5014246;28;20517;-77
2022/08/24 01:47:28;;;;;;;0.50;0.30;;;20.50;99.90;;;;;;5014779;28;20435;-77
2022/08/24 01:49:55;;;;;;;0.50;0.40;;;20.50;99.90;;;;;;5014666;28;20442;-74
2022/08/24 01:52:24;;;;;;;0.50;0.30;;;20.50;99.90;;;;;;5014056;28;20435;-77
2022/08/24 01:54:51;;;;;;;0.50;0.30;;;20.50;99.90;;;;;;5013716;28;20459;-76
2022/08/24 01:57:19;;;;;;;0.50;0.30;;;20.50;99.90;;;;;;5014462;28;20435;-77
2022/08/24 01:59:47;;;;;;;0.50;0.40;;;20.40;99.90;;;;;;5014574;28;20435;-77
2022/08/24 02:02:21;;;;;;;0.50;0.30;;;20.30;99.90;;;;;;5014495;28;20521;-77
2022/08/24 02:04:48;;;;;;;0.50;0.40;;;20.30;99.90;;;;;;5013930;28;20458;-74
2022/08/24 02:07:15;;;;;;;0.50;0.40;;;20.30;99.90;;;;;;5013970;28;20461;-77
2022/08/24 02:09:42;;;;;;;0.50;0.30;;;20.20;99.90;;;;;;5014049;28;20447;-77
2022/08/24 02:12:09;;;;;;;0.50;0.30;;;20.20;99.90;;;;;;5013416;28;20929;-77
2022/08/24 02:14:36;;;;;;;0.50;0.30;;;20.10;99.90;;;;;;5013340;28;20463;-77
2022/08/24 02:17:06;;;;;;;0.50;0.30;;;20.10;99.90;;;;;;5013957;28;20446;-76
2022/08/24 02:19:33;;;;;;;0.50;0.30;;;20.10;99.90;;;;;;5014205;28;20859;-78
2022/08/24 02:22:00;;;;;;;0.50;0.30;;;20.10;99.90;;;;;;5013511;28;20877;-75
2022/08/24 02:24:27;;;;;;;0.50;0.30;;;20.10;99.90;;;;;;5013363;28;20467;-76
2022/08/24 02:26:54;;;;;;;0.50;0.30;;;20.10;99.90;;;;;;5014046;28;20792;-76
2022/08/24 02:29:21;;;;;;;0.50;0.30;;;20.00;99.90;;;;;;5013866;28;20441;-76
2022/08/24 02:31:48;;;;;;;0.50;0.30;;;20.00;99.90;;;;;;5013423;28;20451;-76
2022/08/24 02:34:16;;;;;;;0.50;0.30;;;20.00;99.90;;;;;;5013160;28;20984;-76
2022/08/24 02:36:43;;;;;;;0.50;0.30;;;20.00;99.90;;;;;;5013726;28;20812;-76
2022/08/24 02:39:10;;;;;;;0.50;0.30;;;20.00;99.90;;;;;;5013608;28;20470;-76
2022/08/24 02:41:37;;;;;;;0.50;0.30;;;20.00;99.90;;;;;;5013748;28;20857;-76
2022/08/24 02:44:05;;;;;;;0.50;0.30;;;19.90;99.90;;;;;;5013063;28;20469;-76
2022/08/24 02:46:32;;;;;;;0.50;0.30;;;19.90;99.90;;;;;;5013456;28;20530;-75
2022/08/24 02:48:59;;;;;;;0.50;0.30;;;19.90;99.90;;;;;;5013125;28;20439;-76
2022/08/24 02:51:30;;;;;;;0.50;0.30;;;19.90;99.90;;;;;;5013502;28;20446;-75
2022/08/24 02:53:57;;;;;;;0.50;0.30;;;19.90;99.90;;;;;;5013182;28;20505;-74
2022/08/24 02:56:25;;;;;;;0.50;0.30;;;19.90;99.90;;;;;;5012864;28;20447;-75
2022/08/24 02:58:51;;;;;;;0.50;0.30;;;19.90;99.90;;;;;;5013071;28;20481;-75
2022/08/24 03:01:18;;;;;;;0.50;0.30;;;20.00;99.90;;;;;;5013036;28;20465;-76
2022/08/24 03:03:46;;;;;;;0.50;0.30;;;20.00;99.90;;;;;;5012587;28;20462;-74
2022/08/24 03:06:13;;;;;;;0.50;0.30;;;19.90;99.90;;;;;;5012912;28;20450;-75
2022/08/24 03:08:42;;;;;;;0.50;0.30;;;19.80;99.90;;;;;;5013006;28;20430;-75
2022/08/24 03:11:09;;;;;;;0.50;0.30;;;19.80;99.90;;;;;;5013020;28;20542;-75
2022/08/24 03:13:37;;;;;;;0.50;0.30;;;19.80;99.90;;;;;;5012734;28;20542;-75
2022/08/24 03:16:05;;;;;;;0.50;0.30;;;19.80;99.90;;;;;;5012463;28;20451;-75
2022/08/24 03:18:32;;;;;;;0.50;0.30;;;19.80;99.90;;;;;;5012465;28;20479;-75
2022/08/24 03:21:01;;;;;;;0.50;0.30;;;19.80;99.90;;;;;;5012768;28;20437;-74
2022/08/24 03:23:28;;;;;;;0.50;0.30;;;19.80;99.90;;;;;;5011751;28;20557;-75
2022/08/24 03:25:58;;;;;;;0.50;0.40;;;19.80;99.90;;;;;;5012602;28;20447;-75
2022/08/24 03:28:25;;;;;;;0.50;0.30;;;19.80;99.90;;;;;;5012276;28;21106;-75
2022/08/24 03:30:52;;;;;;;0.50;0.30;;;19.80;99.90;;;;;;5007126;28;20523;-75
2022/08/24 03:33:20;;;;;;;0.50;0.40;;;19.80;99.90;;;;;;4999032;28;20459;-75
2022/08/24 03:35:47;;;;;;;0.50;0.30;;;19.80;99.90;;;;;;4992474;28;20454;-76
2022/08/24 03:38:14;;;;;;;0.50;0.30;;;19.70;99.90;;;;;;4992576;28;20893;-75
2022/08/24 03:40:42;;;;;;;0.50;0.37;;;19.70;99.90;;;;;;4992725;28;20448;-75
2022/08/24 03:43:44;;;;;;;0.50;0.30;;;19.70;99.90;;;;;;4992651;28;20478;-76
2022/08/24 03:45:59;;;;;;;0.50;0.30;;;19.70;99.90;;;;;;4992245;28;20468;-75
2022/08/24 03:48:27;;;;;;;0.50;0.40;;;19.70;99.90;;;;;;4992715;28;20443;-75
2022/08/24 03:50:54;;;;;;;0.50;0.30;;;19.60;99.90;;;;;;4992479;28;20474;-76
2022/08/24 03:53:21;;;;;;;0.50;0.40;;;19.60;99.90;;;;;;4992448;28;20551;-75
2022/08/24 03:55:47;;;;;;;0.50;0.40;;;19.60;99.90;;;;;;4992214;28;20444;-75
2022/08/24 03:58:16;;;;;;;0.50;0.30;;;19.60;99.90;;;;;;4992382;28;20459;-75
2022/08/24 04:00:43;;;;;;;0.50;0.40;;;19.60;99.90;;;;;;4992231;28;20455;-75
2022/08/24 04:03:10;;;;;;;0.50;0.30;;;19.60;99.90;;;;;;4992500;28;20459;-75
2022/08/24 04:05:38;;;;;;;0.50;0.40;;;19.60;99.90;;;;;;4992234;28;20447;-74
2022/08/24 04:08:06;;;;;;;0.50;0.30;;;19.50;99.90;;;;;;4992154;28;20538;-73
2022/08/24 04:10:33;;;;;;;0.50;0.30;;;19.50;99.90;;;;;;4993504;28;20432;-75
2022/08/24 04:13:01;;;;;;;0.50;0.30;;;19.40;99.90;;;;;;5011009;28;20483;-75
2022/08/24 04:15:30;;;;;;;0.50;0.30;;;19.40;99.90;;;;;;5011268;28;20489;-75
2022/08/24 04:17:57;;;;;;;0.50;0.30;;;19.40;99.90;;;;;;5011737;28;20442;-75
2022/08/24 04:20:24;;;;;;;0.50;0.40;;;19.40;99.90;;;;;;5011695;28;20486;-75
2022/08/24 04:22:51;;;;;;;0.50;0.30;;;19.50;99.90;;;;;;5011582;28;20475;-74
2022/08/24 04:25:18;;;;;;;0.50;0.40;;;19.50;99.90;;;;;;5011412;28;20439;-75
2022/08/24 04:27:45;;;;;;;0.50;0.40;;;19.60;99.90;;;;;;5011653;28;20477;-75
2022/08/24 04:30:13;;;;;;;0.50;0.30;;;19.50;99.90;;;;;;5011577;28;20435;-75
2022/08/24 04:32:42;;;;;;;0.50;0.30;;;19.50;99.90;;;;;;5011694;28;20439;-75
2022/08/24 04:35:09;;;;;;;0.50;0.30;;;19.40;99.90;;;;;;5011031;28;20806;-76
2022/08/24 04:37:36;;;;;;;0.50;0.30;;;19.40;99.90;;;;;;5008397;28;20460;-76
2022/08/24 04:40:06;;;;;;;0.50;0.30;;;19.30;99.90;;;;;;5002116;28;20471;-75
2022/08/24 04:42:32;;;;;;;0.50;0.30;;;19.30;99.90;;;;;;5011579;28;20526;-75
2022/08/24 04:44:59;;;;;;;0.50;0.30;;;19.30;99.90;;;;;;5011114;28;20538;-75
2022/08/24 04:47:26;;;;;;;0.50;0.33;;;19.30;99.90;;;;;;5011615;28;20871;-75
2022/08/24 04:49:54;;;;;;;0.50;0.40;;;19.30;99.90;;;;;;5011822;28;20439;-76
2022/08/24 04:52:21;;;;;;;0.50;0.30;;;19.30;99.90;;;;;;5011052;28;20530;-75
2022/08/24 04:54:48;;;;;;;0.50;0.30;;;19.30;99.90;;;;;;5011148;28;20515;-76
2022/08/24 04:57:15;;;;;;;0.50;0.40;;;19.30;99.90;;;;;;5011514;28;20488;-76
2022/08/24 04:59:42;;;;;;;0.50;0.30;;;19.30;99.90;;;;;;5011143;28;20565;-75
2022/08/24 05:02:09;;;;;;;0.50;0.30;;;19.30;99.90;;;;;;5011316;28;20683;-75
2022/08/24 05:04:37;;;;;;;0.50;0.30;;;19.30;99.90;;;;;;5011143;28;20486;-75
2022/08/24 05:07:05;;;;;;;0.50;0.30;;;19.30;99.90;;;;;;5010993;28;20442;-75
2022/08/24 05:09:32;;;;;;;0.50;0.30;;;19.30;99.90;;;;;;5011072;28;20800;-75
2022/08/24 05:12:00;;;;;;;0.50;0.30;;;19.20;99.90;;;;;;5010819;28;20458;-75
2022/08/24 05:14:27;;;;;;;0.50;0.40;;;19.30;99.90;;;;;;5010350;28;21063;-75
2022/08/24 05:16:54;;;;;;;0.50;0.33;;;19.30;99.90;;;;;;5010752;28;20535;-75
2022/08/24 05:19:22;;;;;;;0.50;0.30;;;19.40;99.90;;;;;;5010850;28;20478;-76
2022/08/24 05:21:49;;;;;;;0.50;0.30;;;19.50;99.90;;;;;;5011018;28;20978;-76
2022/08/24 05:24:18;;;;;;;0.50;0.30;;;19.60;99.90;;;;;;5010650;28;20481;-75
2022/08/24 05:26:45;;;;;;;0.50;0.30;;;19.60;99.90;;;;;;5010936;28;20451;-75
2022/08/24 05:29:12;;;;;;;0.50;0.30;;;19.80;99.90;;;;;;5010691;28;20435;-75
2022/08/24 05:31:43;;;;;;;0.50;0.30;;;19.90;99.90;;;;;;5011074;28;20445;-75
2022/08/24 05:34:10;;;;;;;0.50;0.30;;;20.10;99.90;;;;;;5009744;28;20470;-76
2022/08/24 05:36:39;;;;;;;0.50;0.40;;;20.20;99.90;;;;;;5010752;28;20450;-74
2022/08/24 05:39:08;;;;;;;0.50;0.30;;;20.30;99.90;;;;;;5010653;28;20470;-76
2022/08/24 05:41:37;;;;;;;0.50;0.33;;;20.40;99.90;;;;;;5011065;28;20443;-75
2022/08/24 05:44:04;;;;;;;0.50;0.30;;;20.50;99.90;;;;;;5010139;28;20832;-75
2022/08/24 05:46:31;;;;;;;0.50;0.40;;;21.20;99.90;;;;;;5013444;28;20431;-76
2022/08/24 05:48:59;;;;;;;0.50;0.30;;;21.90;99.90;;;;;;5014323;28;20786;-76
2022/08/24 05:51:26;;;;;;;0.50;0.30;;;22.60;99.90;;;;;;5014315;28;20443;-76
2022/08/24 05:53:52;;;;;;;0.50;0.30;;;23.10;99.90;;;;;;5013508;28;20462;-76
2022/08/24 05:56:20;;;;;;;0.50;0.30;;;23.50;99.90;;;;;;5014142;28;20439;-76
2022/08/24 05:58:49;;;;;;;0.50;0.30;;;23.80;99.90;;;;;;5013979;28;20445;-77
2022/08/24 06:01:19;;;;;;;0.50;0.30;;;24.10;99.90;;;;;;5013724;28;20443;-77
2022/08/24 06:03:47;;;;;;;0.50;0.30;;;24.40;99.90;;;;;;5014090;28;20463;-76
2022/08/24 06:06:16;;;;;;;0.50;0.30;;;25.00;99.90;;;;;;5013736;28;20445;-77
2022/08/24 06:08:45;;;;;;;0.50;0.33;;;25.70;99.90;;;;;;5014066;28;20485;-77
2022/08/24 06:11:12;;;;;;;0.50;0.30;;;26.00;99.90;;;;;;5013283;28;20872;-77
2022/08/24 06:13:39;;;;;;;0.50;0.30;;;25.40;99.90;;;;;;5013188;28;20828;-75
2022/08/24 06:16:10;;;;;;;0.50;0.30;;;24.70;99.90;;;;;;5013231;28;20446;-77
2022/08/24 06:18:38;;;;;;;0.50;0.30;;;24.20;99.90;;;;;;5013944;28;20419;-77
2022/08/24 06:21:07;;;;;;;0.50;0.30;;;23.90;99.90;;;;;;5013573;28;20478;-77
2022/08/24 06:23:35;;;;;;;0.50;0.50;;;23.60;99.90;;;;;;5008868;28;20482;-77
2022/08/24 06:28:47;;;;;;;0.50;0.30;;;23.60;99.90;;;;;;4995014;28;20396;-77
2022/08/24 06:31:16;;;;;;;0.50;0.30;;;23.70;99.90;;;;;;4993627;28;20520;-77
2022/08/24 06:33:42;;;;;;;0.50;0.40;;;24.00;99.90;;;;;;4993883;28;20525;-78
2022/08/24 06:36:09;;;;;;;0.50;0.30;;;24.70;99.90;;;;;;4993875;28;20442;-78
2022/08/24 06:38:36;;;;;;;0.50;0.30;;;25.20;99.90;;;;;;4993897;28;20440;-78
2022/08/24 06:41:03;;;;;;;0.50;0.37;;;26.00;99.90;;;;;;4993794;28;20543;-77
2022/08/24 06:43:30;;;;;;;0.50;0.30;;;26.80;99.90;;;;;;4993860;28;20464;-78
2022/08/24 06:45:57;;;;;;;0.50;0.30;;;27.80;99.90;;;;;;4993195;28;20447;-77
2022/08/24 06:48:25;;;;;;;0.50;0.30;;;28.90;99.90;;;;;;4993520;28;20451;-78
2022/08/24 06:50:53;;;;;;;0.50;0.30;;;30.40;99.90;;;;;;4993568;28;20442;-78
2022/08/24 06:53:20;;;;;;;0.50;0.30;;;32.10;92.40;;;;;;5006975;28;20816;-77
2022/08/24 06:55:49;;;;;;;0.50;0.30;;;33.40;84.30;;;;;;5012016;28;20541;-76
2022/08/24 06:58:16;;;;;;;0.50;0.30;;;34.20;72.80;;;;;;5012970;28;20877;-78
2022/08/24 07:00:43;;;;;;;0.50;0.30;;;35.20;72.40;;;;;;5013250;28;20474;-78
2022/08/24 07:03:10;;;;;;;0.50;0.30;;;36.00;68.50;;;;;;5013067;28;20463;-78
2022/08/24 07:05:38;;;;;;;0.50;0.30;;;36.80;62.80;;;;;;5011892;28;20482;-79
2022/08/24 07:08:06;;;;;;;0.50;0.30;;;37.30;59.50;;;;;;5012474;28;20466;-78
2022/08/24 07:10:34;;;;;;;0.50;0.30;;;38.00;57.60;;;;;;5012898;28;20450;-78
2022/08/24 07:13:02;;;;;;;0.47;0.30;;;38.40;53.80;;;;;;5012773;28;20451;-77
2022/08/24 07:15:29;;;;;;;0.40;0.30;;;38.70;51.60;;;;;;5012449;28;20443;-77
2022/08/24 07:17:56;;;;;;;0.40;0.30;;;38.50;50.90;;;;;;5012025;28;20435;-76
2022/08/24 07:20:23;;;;;;;0.40;0.30;;;38.50;50.90;;;;;;5013069;28;20471;-78
2022/08/24 07:22:52;;;;;;;0.40;0.30;;;38.60;52.00;;;;;;5012166;28;20443;-78
2022/08/24 07:25:18;;;;;;;0.40;0.30;;;39.00;50.60;;;;;;5012539;28;20435;-78
2022/08/24 07:27:46;;;;;;;0.40;0.30;;;39.80;50.00;;;;;;5012292;28;20453;-78
2022/08/24 07:30:13;;;;;;;0.40;0.30;;;40.40;50.20;;;;;;5011839;28;20446;-78
2022/08/24 07:32:40;;;;;;;0.40;0.30;;;40.70;46.40;;;;;;5012362;28;20453;-77
2022/08/24 07:35:07;;;;;;;0.40;0.30;;;40.90;46.80;;;;;;5012287;28;20455;-78
2022/08/24 07:37:34;;;;;;;1.47;1.23;;;40.80;46.40;;;;;;5012051;28;20944;-78
2022/08/24 07:40:03;;;;;;;0.40;0.30;;;41.20;45.60;;;;;;5012030;28;20554;-76
2022/08/24 07:42:30;;;;;;;1.10;1.10;;;41.50;45.80;;;;;;5012080;28;20447;-78
2022/08/24 07:44:57;;;;;;;0.40;0.30;;;42.30;45.80;;;;;;5012156;28;20972;-78
2022/08/24 07:47:23;;;;;;;0.40;0.30;;;42.60;43.70;;;;;;5012220;28;20447;-78
2022/08/24 07:49:50;;;;;;;0.40;0.30;;;42.30;44.30;;;;;;5012222;28;20442;-78
2022/08/24 07:52:17;;;;;;;0.50;0.47;;;42.80;43.30;;;;;;5012085;28;20451;-78
2022/08/24 07:54:44;;;;;;;0.40;0.30;;;42.50;43.00;;;;;;5011166;28;20455;-78
2022/08/24 07:57:12;;;;;;;0.40;0.30;;;42.00;43.70;;;;;;5012335;28;20438;-78
2022/08/24 07:59:39;;;;;;;0.40;0.30;;;42.50;44.20;;;;;;5011935;28;20490;-78
2022/08/24 08:02:07;;;;;;;0.40;0.30;;;42.70;43.50;;;;;;5012021;28;20438;-78
2022/08/24 08:04:34;;;;;;;0.40;0.30;;;42.70;43.30;;;;;;5011581;28;20473;-78
2022/08/24 08:07:00;;;;;;;0.40;0.30;;;42.80;42.30;;;;;;5011713;28;20443;-78
2022/08/24 08:09:28;;;;;;;4.30;1.17;;;41.20;42.70;;;;;;5010727;28;20453;-78
2022/08/24 08:11:55;;;;;;;0.40;0.30;;;40.10;44.10;;;;;;5011314;28;20521;-76
2022/08/24 08:14:23;;;;;;;0.43;0.40;;;39.20;47.30;;;;;;5010647;28;20467;-78
2022/08/24 08:16:50;;;;;;;0.50;0.50;;;41.10;45.70;;;;;;5011806;28;20435;-78
2022/08/24 08:19:16;;;;;;;0.60;0.60;;;42.10;43.90;;;;;;5011836;28;20446;-78
2022/08/24 08:24:29;;;;;;;0.50;0.40;;;43.30;42.00;;;;;;5010993;28;20548;-78
2022/08/24 08:26:58;;;;;;;0.40;0.30;;;43.90;41.10;;;;;;5011011;28;20526;-78
2022/08/24 08:29:26;;;;;;;0.40;0.30;;;44.70;41.30;;;;;;5011192;28;20501;-78
2022/08/24 08:31:54;;;;;;;0.40;0.30;;;44.70;41.20;;;;;;5011233;28;20439;-76
2022/08/24 08:34:21;;;;;;;0.50;0.40;;;45.10;39.30;;;;;;5010951;28;20566;-79
2022/08/24 08:36:48;;;;;;;0.40;0.30;;;44.90;40.80;;;;;;5011018;28;20447;-78
2022/08/24 08:39:18;;;;;;;0.40;0.30;;;43.30;40.50;;;;;;5011057;28;20431;-78
2022/08/24 08:42:22;;;;;;;0.40;0.30;;;44.30;40.40;;;;;;5011267;28;20490;-78
2022/08/24 08:45:05;;;;;;;0.40;0.30;;;45.40;39.70;;;;;;5010708;28;20455;-78
2022/08/24 08:48:07;;;;;;;0.40;0.30;;;46.70;39.10;;;;;;5011289;28;20541;-76
2022/08/24 08:50:43;;;;;;;0.50;0.50;;;47.50;38.60;;;;;;4998322;28;20998;-79
2022/08/24 08:53:35;;;;;;;0.40;0.30;;;47.60;37.40;;;;;;5011085;28;20455;-79
2022/08/24 08:56:12;;;;;;;0.40;0.30;;;46.20;38.20;;;;;;5010728;28;20437;-79
2022/08/24 08:59:00;;;;;;;0.40;0.30;;;46.10;38.30;;;;;;5011208;28;20435;-78
2022/08/24 09:01:39;;;;;;;0.40;0.30;;;44.80;39.00;;;;;;5011125;28;20473;-77
2022/08/24 09:04:24;;;;;;;0.40;0.30;;;44.40;39.70;;;;;;5010775;28;20459;-78
2022/08/24 09:07:04;;;;;;;0.50;0.30;;;44.90;40.70;;;;;;5011103;28;20438;-78
2022/08/24 09:09:57;;;;;;;0.50;0.37;;;43.80;40.80;;;;;;5011448;28;20927;-78
2022/08/24 09:12:38;;;;;;;0.80;0.70;;;43.50;41.10;;;;;;5010601;28;20874;-78
2022/08/24 09:15:20;;;;;;;0.40;0.30;;;43.50;41.00;;;;;;5010454;28;20561;-79
2022/08/24 09:18:08;;;;;;;0.40;0.30;;;44.40;40.70;;;;;;5011049;28;20525;-78
2022/08/24 09:21:08;;;;;;;0.40;0.30;;;43.90;40.50;;;;;;5011836;28;20458;-77
2022/08/24 09:23:47;;;;;;;0.50;0.50;;;44.20;41.10;;;;;;5013148;28;20887;-78
2022/08/24 09:26:25;;;;;;;0.40;0.30;;;44.10;39.20;;;;;;5014825;28;20480;-78
2022/08/24 09:29:02;;;;;;;0.40;0.30;;;44.20;40.20;;;;;;5014937;28;20445;-78
2022/08/24 09:31:49;;;;;;;0.40;0.30;;;43.90;40.00;;;;;;5015058;28;20515;-77
2022/08/24 09:34:33;;;;;;;0.40;0.30;;;43.80;40.60;;;;;;5014379;28;20510;-78
2022/08/24 09:37:11;;;;;;;0.40;0.30;;;44.60;39.80;;;;;;5014468;28;20419;-76
2022/08/24 09:39:55;;;;;;;0.40;0.30;;;44.50;39.10;;;;;;5014443;28;20472;-78
2022/08/24 09:42:54;;;;;;;0.40;0.30;;;43.60;39.10;;;;;;5014299;28;20434;-78
2022/08/24 09:45:39;;;;;;;0.40;0.30;;;44.20;39.50;;;;;;5014180;28;20878;-78
2022/08/24 09:48:28;;;;;;;0.50;0.30;;;44.70;39.90;;;;;;5013907;28;20597;-79
2022/08/24 09:51:41;;;;;;;0.40;0.30;;;45.40;38.50;;;;;;5014361;28;20428;-78
2022/08/24 09:54:44;;;;;;;0.40;0.30;;;45.10;38.80;;;;;;4971964;28;20976;-77
2022/08/24 09:57:33;;;;;;;0.50;0.40;;;44.20;38.60;;;;;;4988100;28;20447;-77
2022/08/24 10:00:13;;;;;;;0.40;0.30;;;43.40;39.50;;;;;;5013876;28;20481;-73
2022/08/24 10:02:58;;;;;;;0.97;0.60;;;43.80;40.70;;;;;;5014258;28;20422;-75
2022/08/24 10:05:41;;;;;;;0.40;0.30;;;44.00;40.00;;;;;;5013831;28;20496;-77
2022/08/24 10:08:21;;;;;;;0.40;0.30;;;44.10;40.10;;;;;;5013732;28;20423;-77
2022/08/24 10:10:53;;;;;;;0.40;0.30;;;44.30;39.10;;;;;;5014059;28;20446;-77
2022/08/24 10:13:32;;;;;;;0.40;0.30;;;43.70;40.50;;;;;;5014010;28;20546;-77
2022/08/24 10:16:16;;;;;;;0.40;0.30;;;44.80;40.40;;;;;;5012632;28;20431;-78
2022/08/24 10:18:56;;;;;;;0.40;0.30;;;44.70;39.00;;;;;;5013545;28;20431;-77
2022/08/24 10:21:37;;;;;;;0.40;0.30;;;45.10;39.40;;;;;;5013446;28;20575;-77
2022/08/24 10:24:38;;;;;;;0.57;0.40;;;45.40;38.40;;;;;;5012879;28;20474;-77
2022/08/24 10:27:33;;;;;;;0.40;0.30;;;45.40;39.20;;;;;;5002610;28;20457;-77
2022/08/24 10:30:37;;;;;;;0.40;0.30;;;44.80;38.50;;;;;;5013110;28;20458;-73
2022/08/24 10:33:14;;;;;;;0.60;0.40;;;45.00;39.00;;;;;;5013047;28;20840;-77
2022/08/24 10:36:00;;;;;;;0.40;0.30;;;44.90;38.00;;;;;;5013160;28;20438;-77
2022/08/24 10:45:16;;;;;;;0.80;0.73;;;46.20;37.50;;;;;;5012512;28;20457;-77
2022/08/24 10:48:04;;;;;;;0.40;0.30;;;46.30;38.30;;;;;;5013715;28;20450;-77
2022/08/24 10:50:46;;;;;;;0.40;0.30;;;45.70;37.60;;;;;;5013461;28;20872;-77
2022/08/24 10:53:23;;;;;;;0.40;0.30;;;45.80;37.90;;;;;;5013024;28;20483;-77
2022/08/24 10:56:04;;;;;;;0.40;0.30;;;45.20;37.70;;;;;;5012673;28;20427;-76
2022/08/24 10:58:49;;;;;;;0.40;0.30;;;44.40;38.30;;;;;;5013641;28;20423;-77
2022/08/24 11:01:20;;;;;;;0.40;0.30;;;43.90;38.50;;;;;;5012805;28;20825;-77
2022/08/24 11:03:54;;;;;;;0.40;0.30;;;44.40;38.80;;;;;;5012697;28;20912;-77
2022/08/24 11:06:24;;;;;;;0.40;0.30;;;44.60;38.10;;;;;;5012998;28;20427;-77
2022/08/24 11:08:54;;;;;;;0.40;0.30;;;44.20;38.30;;;;;;5012806;28;20435;-77
2022/08/24 11:11:30;;;;;;;0.40;0.30;;;43.90;38.40;;;;;;5012893;28;20868;-77
2022/08/24 11:14:00;;;;;;;0.40;0.30;;;43.80;38.80;;;;;;5012381;28;21114;-76
2022/08/24 11:16:31;;;;;;;0.47;0.40;;;43.80;39.50;;;;;;5012689;28;20734;-77
2022/08/24 11:19:00;;;;;;;0.40;0.30;;;43.20;38.60;;;;;;5013098;28;20530;-73
2022/08/24 11:21:50;;;;;;;0.40;0.30;;;42.80;39.30;;;;;;5012655;28;20568;-76
2022/08/24 11:24:39;;;;;;;0.40;0.30;;;42.90;39.80;;;;;;5012492;28;20578;-77
2022/08/24 11:27:17;;;;;;;0.40;0.30;;;42.80;39.00;;;;;;5012882;28;20423;-77
2022/08/24 11:29:58;;;;;;;0.40;0.30;;;43.50;39.00;;;;;;5012479;28;20445;-77
2022/08/24 11:32:28;;;;;;;0.50;0.50;;;43.50;39.60;;;;;;5012445;28;20423;-77
2022/08/24 11:35:00;;;;;;;0.40;0.30;;;44.60;38.80;;;;;;5011988;28;20493;-77
2022/08/24 11:37:32;;;;;;;0.40;0.30;;;44.80;38.50;;;;;;5012041;28;20440;-77
2022/08/24 11:40:00;;;;;;;0.40;0.30;;;44.40;38.20;;;;;;5011879;28;20434;-78
2022/08/24 11:42:44;;;;;;;0.40;0.30;;;44.50;37.70;;;;;;5012253;28;20781;-77
2022/08/24 11:45:19;;;;;;;0.40;0.30;;;44.40;39.10;;;;;;5011521;28;20467;-77
2022/08/24 11:47:58;;;;;;;0.40;0.30;;;44.30;37.80;;;;;;5012086;28;20936;-77
2022/08/24 11:50:35;;;;;;;0.70;0.63;;;43.40;38.60;;;;;;5012136;28;20431;-77
2022/08/24 11:53:17;;;;;;;0.40;0.30;;;43.50;38.00;;;;;;5012082;28;20426;-76
2022/08/24 11:55:51;;;;;;;0.40;0.30;;;42.40;38.80;;;;;;5011695;28;20455;-77
2022/08/24 11:58:31;;;;;;;2.50;1.17;;;42.90;40.00;;;;;;5012023;28;20428;-77
2022/08/24 12:01:08;;;;;;;0.40;0.30;;;43.50;38.60;;;;;;5011674;28;20467;-76
2022/08/24 12:03:48;;;;;;;0.40;0.30;;;43.60;37.90;;;;;;5011712;28;20998;-77
2022/08/24 12:06:28;;;;;;;0.40;0.30;;;43.50;38.10;;;;;;5011675;28;20455;-77
2022/08/24 12:09:02;;;;;;;0.40;0.30;;;44.30;38.90;;;;;;5011893;28;20426;-77
2022/08/24 12:11:36;;;;;;;0.40;0.30;;;44.20;38.30;;;;;;5011463;28;20455;-76
2022/08/24 12:14:06;;;;;;;0.40;0.23;;;44.60;37.70;;;;;;5010848;28;20465;-77
2022/08/24 12:16:42;;;;;;;0.40;0.30;;;45.20;38.00;;;;;;5012055;28;20443;-77
2022/08/24 12:19:15;;;;;;;0.40;0.30;;;45.40;37.70;;;;;;5011409;28;20423;-77
2022/08/24 12:21:46;;;;;;;0.40;0.30;;;45.80;36.90;;;;;;5011551;28;20498;-77
2022/08/24 12:24:16;;;;;;;0.40;0.30;;;46.30;36.70;;;;;;5010767;28;20473;-77
2022/08/24 12:26:47;;;;;;;0.40;0.30;;;45.80;36.00;;;;;;5011647;28;20423;-77
2022/08/24 12:29:22;;;;;;;1.03;0.60;;;46.00;36.30;;;;;;5012672;28;20443;-77
2022/08/24 12:31:54;;;;;;;0.40;0.40;;;45.80;37.20;;;;;;5011150;28;20449;-77
2022/08/24 12:34:26;;;;;;;0.40;0.30;;;46.50;37.00;;;;;;5010929;28;20458;-77
2022/08/24 12:37:00;;;;;;;0.40;0.30;;;47.00;36.40;;;;;;5011532;28;20892;-77
2022/08/24 12:39:31;;;;;;;0.40;0.30;;;47.30;35.90;;;;;;5011649;28;20446;-77
2022/08/24 12:42:06;;;;;;;0.40;0.20;;;46.60;35.80;;;;;;5011310;28;20828;-76
2022/08/24 12:44:42;;;;;;;0.40;0.30;;;46.40;36.10;;;;;;5011530;28;20462;-78
2022/08/24 12:47:11;;;;;;;0.40;0.27;;;46.40;36.50;;;;;;5011394;28;20837;-77
2022/08/24 12:49:46;;;;;;;0.40;0.30;;;46.50;36.80;;;;;;5011692;28;20445;-77
2022/08/24 12:52:35;;;;;;;0.40;0.30;;;46.70;36.50;;;;;;5011345;28;20429;-76
2022/08/24 12:55:19;;;;;;;0.40;0.30;;;45.80;35.60;;;;;;5012260;28;20462;-77
2022/08/24 12:57:57;;;;;;;0.40;0.30;;;45.60;36.90;;;;;;5015293;28;20466;-77
2022/08/24 13:00:31;;;;;;;0.40;0.30;;;45.10;36.70;;;;;;5015669;28;20433;-77
2022/08/24 13:03:02;;;;;;;0.40;0.30;;;44.50;36.40;;;;;;5015246;28;20459;-76
2022/08/24 13:05:41;;;;;;;0.40;0.30;;;44.20;37.10;;;;;;5014932;28;20447;-76
2022/08/24 13:08:15;;;;;;;0.50;0.40;;;44.60;36.70;;;;;;5014931;28;20445;-77
2022/08/24 13:10:51;;;;;;;0.40;0.30;;;43.60;36.80;;;;;;5014641;28;20438;-76
2022/08/24 13:13:40;;;;;;;0.40;0.30;;;43.90;37.30;;;;;;5014930;28;20458;-77
2022/08/24 13:16:07;;;;;;;0.40;0.30;;;43.90;37.30;;;;;;5014460;28;20426;-77
2022/08/24 13:19:12;;;;;;;0.40;0.30;;;44.20;38.30;;;;;;5014842;28;20465;-77
2022/08/24 13:21:47;;;;;;;0.40;0.30;;;44.80;37.80;;;;;;5014299;28;20474;-77
2022/08/24 13:24:42;;;;;;;0.40;0.30;;;44.00;38.50;;;;;;5013956;28;20466;-77
2022/08/24 13:27:44;;;;;;;0.40;0.40;;;43.70;37.40;;;;;;4990852;28;20457;-78